sensor_id;sensor_type;location;lat;lon;timestamp;P1;durP1;ratioP1;P2;durP2;ratioP2
14153;SDS011;7157;53.144;7.570;2022-09-23T00:04:33;11.35;;;7.50;;
14153;SDS011;7157;53.144;7.570;2022-09-23T00:14:38;12.50;;;8.40;;
14153;SDS011;7157;53.144;7.570;2022-09-23T00:24:41;16.15;;;9.55;;
14153;SDS011;7157;53.144;7.570;2022-09-23T00:34:45;14.02;;;8.68;;
14153;SDS011;7157;53.144;7.570;2022-09-23T00:44:50;13.60;;;8.82;;
14153;SDS011;7157;53.144;7.570;2022-09-23T00:54:55;12.63;;;7.93;;
14153;SDS011;7157;53.144;7.570;2022-09-23T01:05:01;13.48;;;7.82;;
14153;SDS011;7157;53.144;7.570;2022-09-23T01:15:08;10.93;;;7.85;;
14153;SDS011;7157;53.144;7.570;2022-09-23T01:25:26;16.58;;;8.80;;
14153;SDS011;7157;53.144;7.570;2022-09-23T01:35:46;13.55;;;9.50;;
14153;SDS011;7157;53.144;7.570;2022-09-23T01:45:56;20.77;;;12.30;;
14153;SDS011;7157;53.144;7.570;2022-09-23T01:56:05;13.00;;;8.50;;
14153;SDS011;7157;53.144;7.570;2022-09-23T02:16:22;12.70;;;8.32;;
14153;SDS011;7157;53.144;7.570;2022-09-23T02:26:29;15.38;;;8.65;;
14153;SDS011;7157;53.144;7.570;2022-09-23T02:36:39;12.70;;;8.50;;
14153;SDS011;7157;53.144;7.570;2022-09-23T02:46:47;12.90;;;8.15;;
14153;SDS011;7157;53.144;7.570;2022-09-23T02:56:53;13.35;;;8.82;;
14153;SDS011;7157;53.144;7.570;2022-09-23T03:06:59;15.77;;;9.15;;
14153;SDS011;7157;53.144;7.570;2022-09-23T03:17:08;13.13;;;8.43;;
14153;SDS011;7157;53.144;7.570;2022-09-23T03:37:29;11.80;;;8.07;;
14153;SDS011;7157;53.144;7.570;2022-09-23T03:47:35;13.40;;;9.32;;
14153;SDS011;7157;53.144;7.570;2022-09-23T03:57:41;11.60;;;8.50;;
14153;SDS011;7157;53.144;7.570;2022-09-23T04:07:43;11.90;;;8.15;;
14153;SDS011;7157;53.144;7.570;2022-09-23T04:17:48;14.77;;;8.32;;
14153;SDS011;7157;53.144;7.570;2022-09-23T04:27:50;13.55;;;8.95;;
14153;SDS011;7157;53.144;7.570;2022-09-23T04:37:54;13.15;;;9.05;;
14153;SDS011;7157;53.144;7.570;2022-09-23T04:47:57;13.45;;;8.93;;
14153;SDS011;7157;53.144;7.570;2022-09-23T04:58:01;19.25;;;9.52;;
14153;SDS011;7157;53.144;7.570;2022-09-23T05:08:04;13.38;;;8.45;;
14153;SDS011;7157;53.144;7.570;2022-09-23T05:18:08;15.82;;;9.48;;
14153;SDS011;7157;53.144;7.570;2022-09-23T05:28:11;20.88;;;8.43;;
14153;SDS011;7157;53.144;7.570;2022-09-23T05:38:16;21.30;;;9.40;;
14153;SDS011;7157;53.144;7.570;2022-09-23T05:48:19;13.65;;;9.05;;
14153;SDS011;7157;53.144;7.570;2022-09-23T05:58:23;12.90;;;9.07;;
14153;SDS011;7157;53.144;7.570;2022-09-23T06:08:27;12.80;;;8.82;;
14153;SDS011;7157;53.144;7.570;2022-09-23T06:18:31;12.18;;;8.40;;
14153;SDS011;7157;53.144;7.570;2022-09-23T06:28:35;10.15;;;7.38;;
14153;SDS011;7157;53.144;7.570;2022-09-23T06:38:40;15.43;;;7.53;;
14153;SDS011;7157;53.144;7.570;2022-09-23T06:48:45;11.80;;;7.50;;
14153;SDS011;7157;53.144;7.570;2022-09-23T06:58:51;12.52;;;6.50;;
14153;SDS011;7157;53.144;7.570;2022-09-23T07:08:54;11.57;;;6.85;;
14153;SDS011;7157;53.144;7.570;2022-09-23T07:18:58;10.20;;;6.30;;
14153;SDS011;7157;53.144;7.570;2022-09-23T07:29:02;9.48;;;6.40;;
14153;SDS011;7157;53.144;7.570;2022-09-23T07:39:07;10.68;;;5.85;;
14153;SDS011;7157;53.144;7.570;2022-09-23T07:49:11;13.15;;;5.93;;
14153;SDS011;7157;53.144;7.570;2022-09-23T07:59:15;9.65;;;5.82;;
14153;SDS011;7157;53.144;7.570;2022-09-23T08:09:20;9.80;;;5.38;;
14153;SDS011;7157;53.144;7.570;2022-09-23T08:19:25;9.80;;;4.85;;
14153;SDS011;7157;53.144;7.570;2022-09-23T08:29:28;8.75;;;4.82;;
14153;SDS011;7157;53.144;7.570;2022-09-23T08:39:32;10.73;;;5.15;;
14153;SDS011;7157;53.144;7.570;2022-09-23T08:49:35;9.85;;;5.18;;
14153;SDS011;7157;53.144;7.570;2022-09-23T08:59:42;11.82;;;4.78;;
14153;SDS011;7157;53.144;7.570;2022-09-23T09:09:46;9.43;;;5.15;;
14153;SDS011;7157;53.144;7.570;2022-09-23T09:19:55;10.35;;;4.70;;
14153;SDS011;7157;53.144;7.570;2022-09-23T09:29:59;7.97;;;4.85;;
14153;SDS011;7157;53.144;7.570;2022-09-23T09:40:04;7.50;;;4.70;;
14153;SDS011;7157;53.144;7.570;2022-09-23T09:50:10;8.88;;;4.50;;
14153;SDS011;7157;53.144;7.570;2022-09-23T10:00:34;9.82;;;4.80;;
14153;SDS011;7157;53.144;7.570;2022-09-23T10:10:49;8.70;;;4.75;;
14153;SDS011;7157;53.144;7.570;2022-09-23T10:21:00;7.40;;;4.72;;
14153;SDS011;7157;53.144;7.570;2022-09-23T10:31:08;7.15;;;4.40;;
14153;SDS011;7157;53.144;7.570;2022-09-23T10:41:19;9.57;;;4.28;;
14153;SDS011;7157;53.144;7.570;2022-09-23T10:51:48;8.43;;;4.38;;
14153;SDS011;7157;53.144;7.570;2022-09-23T11:02:03;7.75;;;4.45;;
14153;SDS011;7157;53.144;7.570;2022-09-23T11:12:17;7.63;;;4.05;;
14153;SDS011;7157;53.144;7.570;2022-09-23T11:22:32;6.32;;;4.07;;
14153;SDS011;7157;53.144;7.570;2022-09-23T11:33:02;8.45;;;3.35;;
14153;SDS011;7157;53.144;7.570;2022-09-23T11:43:17;12.90;;;3.67;;
14153;SDS011;7157;53.144;7.570;2022-09-23T11:53:22;6.38;;;3.40;;
14153;SDS011;7157;53.144;7.570;2022-09-23T12:03:36;10.70;;;3.33;;
14153;SDS011;7157;53.144;7.570;2022-09-23T12:13:49;5.47;;;3.03;;
14153;SDS011;7157;53.144;7.570;2022-09-23T12:24:03;7.10;;;3.30;;
14153;SDS011;7157;53.144;7.570;2022-09-23T12:34:27;7.00;;;2.80;;
14153;SDS011;7157;53.144;7.570;2022-09-23T12:44:40;8.43;;;2.83;;
14153;SDS011;7157;53.144;7.570;2022-09-23T12:54:44;6.07;;;2.83;;
14153;SDS011;7157;53.144;7.570;2022-09-23T13:04:53;4.93;;;2.50;;
14153;SDS011;7157;53.144;7.570;2022-09-23T13:15:25;4.68;;;2.63;;
14153;SDS011;7157;53.144;7.570;2022-09-23T13:25:33;4.82;;;2.75;;
14153;SDS011;7157;53.144;7.570;2022-09-23T13:35:42;7.28;;;3.50;;
14153;SDS011;7157;53.144;7.570;2022-09-23T13:45:52;5.93;;;3.38;;
14153;SDS011;7157;53.144;7.570;2022-09-23T13:56:00;14.43;;;3.28;;
14153;SDS011;7157;53.144;7.570;2022-09-23T14:06:07;6.73;;;3.43;;
14153;SDS011;7157;53.144;7.570;2022-09-23T14:16:13;7.22;;;2.90;;
14153;SDS011;7157;53.144;7.570;2022-09-23T14:26:18;8.05;;;2.80;;
14153;SDS011;7157;53.144;7.570;2022-09-23T14:36:22;5.47;;;3.00;;
14153;SDS011;7157;53.144;7.570;2022-09-23T14:46:48;9.13;;;3.03;;
14153;SDS011;7157;53.144;7.570;2022-09-23T14:56:56;8.48;;;2.92;;
14153;SDS011;7157;53.144;7.570;2022-09-23T15:07:02;6.13;;;3.03;;
14153;SDS011;7157;53.144;7.570;2022-09-23T15:17:13;6.22;;;3.53;;
14153;SDS011;7157;53.144;7.570;2022-09-23T15:27:26;6.65;;;3.20;;
14153;SDS011;7157;53.144;7.570;2022-09-23T15:37:31;6.65;;;3.08;;
14153;SDS011;7157;53.144;7.570;2022-09-23T15:47:38;8.85;;;3.55;;
14153;SDS011;7157;53.144;7.570;2022-09-23T15:57:40;6.38;;;3.75;;
14153;SDS011;7157;53.144;7.570;2022-09-23T16:07:44;9.25;;;4.45;;
14153;SDS011;7157;53.144;7.570;2022-09-23T16:17:48;9.23;;;4.53;;
14153;SDS011;7157;53.144;7.570;2022-09-23T16:27:53;10.23;;;5.93;;
14153;SDS011;7157;53.144;7.570;2022-09-23T16:37:56;17.17;;;8.07;;
14153;SDS011;7157;53.144;7.570;2022-09-23T16:48:01;9.98;;;6.53;;
14153;SDS011;7157;53.144;7.570;2022-09-23T16:58:03;11.00;;;7.18;;
14153;SDS011;7157;53.144;7.570;2022-09-23T17:08:07;13.73;;;7.72;;
14153;SDS011;7157;53.144;7.570;2022-09-23T17:18:13;14.38;;;9.45;;
14153;SDS011;7157;53.144;7.570;2022-09-23T17:28:21;15.35;;;9.45;;
14153;SDS011;7157;53.144;7.570;2022-09-23T17:38:24;13.82;;;8.85;;
14153;SDS011;7157;53.144;7.570;2022-09-23T17:48:31;15.30;;;8.85;;
14153;SDS011;7157;53.144;7.570;2022-09-23T17:58:36;35.38;;;18.45;;
14153;SDS011;7157;53.144;7.570;2022-09-23T18:08:41;21.70;;;13.60;;
14153;SDS011;7157;53.144;7.570;2022-09-23T18:18:48;18.38;;;10.45;;
14153;SDS011;7157;53.144;7.570;2022-09-23T18:28:53;17.98;;;11.63;;
14153;SDS011;7157;53.144;7.570;2022-09-23T18:39:01;22.07;;;11.83;;
14153;SDS011;7157;53.144;7.570;2022-09-23T18:49:07;24.50;;;13.75;;
14153;SDS011;7157;53.144;7.570;2022-09-23T18:59:27;26.85;;;15.52;;
14153;SDS011;7157;53.144;7.570;2022-09-23T19:09:31;18.08;;;11.23;;
14153;SDS011;7157;53.144;7.570;2022-09-23T19:19:34;18.65;;;11.02;;
14153;SDS011;7157;53.144;7.570;2022-09-23T19:29:39;20.25;;;12.05;;
14153;SDS011;7157;53.144;7.570;2022-09-23T19:39:41;17.73;;;12.10;;
14153;SDS011;7157;53.144;7.570;2022-09-23T19:49:46;17.40;;;12.40;;
14153;SDS011;7157;53.144;7.570;2022-09-23T19:59:50;25.05;;;13.38;;
14153;SDS011;7157;53.144;7.570;2022-09-23T20:09:54;21.58;;;13.73;;
14153;SDS011;7157;53.144;7.570;2022-09-23T20:19:56;23.65;;;13.88;;
14153;SDS011;7157;53.144;7.570;2022-09-23T20:30:01;18.48;;;12.13;;
14153;SDS011;7157;53.144;7.570;2022-09-23T20:40:04;20.00;;;12.13;;
14153;SDS011;7157;53.144;7.570;2022-09-23T20:50:11;18.10;;;12.40;;
14153;SDS011;7157;53.144;7.570;2022-09-23T21:00:14;17.25;;;12.10;;
14153;SDS011;7157;53.144;7.570;2022-09-23T21:10:19;26.70;;;14.63;;
14153;SDS011;7157;53.144;7.570;2022-09-23T21:20:23;23.25;;;13.93;;
14153;SDS011;7157;53.144;7.570;2022-09-23T21:30:27;23.02;;;13.32;;
14153;SDS011;7157;53.144;7.570;2022-09-23T21:40:30;25.00;;;13.73;;
14153;SDS011;7157;53.144;7.570;2022-09-23T21:50:54;21.73;;;14.48;;
14153;SDS011;7157;53.144;7.570;2022-09-23T22:00:57;23.92;;;14.10;;
14153;SDS011;7157;53.144;7.570;2022-09-23T22:11:06;23.95;;;13.88;;
14153;SDS011;7157;53.144;7.570;2022-09-23T22:21:30;19.27;;;13.60;;
14153;SDS011;7157;53.144;7.570;2022-09-23T22:31:35;21.08;;;13.35;;
14153;SDS011;7157;53.144;7.570;2022-09-23T22:41:55;19.90;;;12.95;;
14153;SDS011;7157;53.144;7.570;2022-09-23T22:52:00;22.58;;;13.98;;
14153;SDS011;7157;53.144;7.570;2022-09-23T23:02:04;28.20;;;13.85;;
14153;SDS011;7157;53.144;7.570;2022-09-23T23:12:09;28.80;;;14.68;;
14153;SDS011;7157;53.144;7.570;2022-09-23T23:22:11;27.48;;;14.27;;
14153;SDS011;7157;53.144;7.570;2022-09-23T23:32:15;32.25;;;16.48;;
14153;SDS011;7157;53.144;7.570;2022-09-23T23:42:18;26.95;;;15.13;;
14153;SDS011;7157;53.144;7.570;2022-09-23T23:52:22;29.25;;;17.05;;
